createdAt,value
2022-08-30T00:00:45.340Z,90.31
2022-08-30T00:01:45.324Z,90.71
2022-08-30T00:02:45.571Z,90.81
2022-08-30T00:03:45.438Z,90.92
2022-08-30T00:04:45.300Z,90.71
2022-08-30T00:05:45.291Z,91.98
2022-08-30T00:06:45.284Z,91.57
2022-08-30T00:07:45.308Z,91.37
2022-08-30T00:08:45.260Z,91.47
2022-08-30T00:09:46.260Z,91.83
2022-08-30T00:10:45.270Z,92.35
2022-08-30T00:11:45.240Z,92.39
2022-08-30T00:12:45.255Z,92.08
2022-08-30T00:13:45.223Z,91.98
2022-08-30T00:14:45.215Z,91.98
2022-08-30T00:15:45.271Z,91.88
2022-08-30T00:16:45.200Z,92.08
2022-08-30T00:17:45.223Z,92.19
2022-08-30T00:18:45.190Z,92.14
2022-08-30T00:19:45.178Z,91.88
2022-08-30T00:20:45.178Z,92.04
2022-08-30T00:21:45.167Z,92.19
2022-08-30T00:22:45.187Z,92.14
2022-08-30T00:23:45.140Z,92.29
2022-08-30T00:24:45.138Z,91.53
2022-08-30T00:25:45.131Z,91.43
2022-08-30T00:26:45.126Z,92.35
2022-08-30T00:27:45.137Z,91.83
2022-08-30T00:28:45.106Z,92.14
2022-08-30T00:29:45.102Z,91.83
2022-08-30T00:30:45.171Z,91.83
2022-08-30T00:31:45.082Z,92.14
2022-08-30T00:32:45.098Z,92.14
2022-08-30T00:33:45.066Z,91.74
2022-08-30T00:34:45.069Z,92.14
2022-08-30T00:35:45.053Z,92.24
2022-08-30T00:36:45.048Z,92.24
2022-08-30T00:37:45.067Z,91.79
2022-08-30T00:38:45.035Z,91.59
2022-08-30T00:39:45.025Z,91.63
2022-08-30T00:40:45.073Z,92.14
2022-08-30T00:41:45.017Z,92.04
2022-08-30T00:42:45.027Z,91.79
2022-08-30T00:43:45.995Z,91.59
2022-08-30T00:44:44.990Z,92.00
2022-08-30T00:45:44.981Z,91.94
2022-08-30T00:46:45.024Z,91.79
2022-08-30T00:47:44.994Z,90.26
2022-08-30T00:48:44.959Z,89.96
2022-08-30T00:49:44.953Z,89.90
2022-08-30T00:50:44.943Z,89.79
2022-08-30T00:51:44.943Z,89.59
2022-08-30T00:52:44.981Z,90.20
2022-08-30T00:53:44.920Z,90.61
2022-08-30T00:54:44.912Z,91.02
2022-08-30T00:55:44.906Z,92.04
2022-08-30T00:56:44.902Z,92.45
2022-08-30T00:57:44.924Z,92.08
2022-08-30T00:58:44.890Z,92.24
2022-08-30T00:59:44.877Z,91.63
2022-08-30T01:00:44.890Z,91.63
2022-08-30T01:01:44.906Z,91.43
2022-08-30T01:02:44.904Z,91.74
2022-08-30T01:03:44.856Z,91.63
2022-08-30T01:04:44.840Z,90.86
2022-08-30T01:05:44.828Z,92.08
2022-08-30T01:06:44.825Z,91.88
2022-08-30T01:07:44.850Z,92.69
2022-08-30T01:08:44.813Z,93.71
2022-08-30T01:09:44.802Z,93.21
2022-08-30T01:10:44.793Z,93.45
2022-08-30T01:11:44.789Z,93.45
2022-08-30T01:12:44.808Z,92.74
2022-08-30T01:13:44.767Z,93.15
2022-08-30T01:14:44.762Z,92.74
2022-08-30T01:15:44.805Z,92.64
2022-08-30T01:16:44.746Z,92.94
2022-08-30T01:17:44.778Z,93.35
2022-08-30T01:18:44.734Z,93.45
2022-08-30T01:19:44.722Z,93.86
2022-08-30T01:20:44.742Z,93.76
2022-08-30T01:21:44.731Z,93.86
2022-08-30T01:22:45.025Z,93.55
2022-08-30T01:23:44.682Z,93.76
2022-08-30T01:24:45.694Z,93.66
2022-08-30T01:25:44.684Z,93.76
2022-08-30T01:26:44.676Z,93.66
2022-08-30T01:27:44.696Z,93.51
2022-08-30T01:28:44.658Z,93.76
2022-08-30T01:29:44.648Z,93.21
2022-08-30T01:30:44.693Z,93.51
2022-08-30T01:31:44.639Z,92.69
2022-08-30T01:32:44.630Z,92.64
2022-08-30T01:33:44.650Z,92.94
2022-08-30T01:34:44.613Z,93.55
2022-08-30T01:35:44.604Z,93.45
2022-08-30T01:36:45.114Z,93.96
2022-08-30T01:37:44.620Z,94.07
2022-08-30T01:38:44.580Z,93.55
2022-08-30T01:39:44.575Z,93.91
2022-08-30T01:40:44.597Z,94.07
2022-08-30T01:41:44.557Z,94.52
2022-08-30T01:42:44.577Z,94.11
2022-08-30T01:43:44.544Z,94.11
2022-08-30T01:44:44.533Z,94.73
2022-08-30T01:45:44.577Z,94.62
2022-08-30T01:46:44.518Z,94.52
2022-08-30T01:47:44.538Z,94.01
2022-08-30T01:48:50.243Z,94.26
2022-08-30T01:49:45.497Z,95.28
2022-08-30T01:50:44.485Z,95.18
2022-08-30T01:51:44.479Z,95.69
2022-08-30T01:52:44.496Z,95.69
2022-08-30T01:53:44.463Z,96.30
2022-08-30T01:54:44.463Z,96.10
2022-08-30T01:55:44.450Z,96.30
2022-08-30T01:56:44.444Z,96.20
2022-08-30T01:57:44.465Z,95.79
2022-08-30T01:58:44.442Z,95.59
2022-08-30T02:00:16.935Z,95.69
2022-08-30T02:00:44.412Z,96.00
2022-08-30T02:01:44.439Z,95.69
2022-08-30T02:02:44.569Z,95.73
2022-08-30T02:03:44.486Z,95.69
2022-08-30T02:04:44.380Z,95.63
2022-08-30T02:05:44.380Z,95.73
2022-08-30T02:06:44.363Z,95.79
2022-08-30T02:07:44.382Z,95.63
2022-08-30T02:08:44.353Z,95.73
2022-08-30T02:09:44.357Z,95.63
2022-08-30T02:10:44.335Z,95.84
2022-08-30T02:11:44.327Z,95.94
2022-08-30T02:12:44.354Z,96.10
2022-08-30T02:13:44.313Z,95.69
2022-08-30T02:14:44.311Z,95.59
2022-08-30T02:15:44.309Z,96.10
2022-08-30T02:16:44.327Z,96.04
2022-08-30T02:17:44.285Z,96.14
2022-08-30T02:18:44.292Z,96.34
2022-08-30T02:19:44.263Z,95.94
2022-08-30T02:20:44.257Z,96.55
2022-08-30T02:21:44.246Z,96.55
2022-08-30T02:22:49.162Z,97.16
2022-08-30T02:23:45.258Z,97.00
2022-08-30T02:24:44.229Z,96.96
2022-08-30T02:25:44.225Z,97.00
2022-08-30T02:26:44.209Z,97.11
2022-08-30T02:27:44.206Z,97.05
2022-08-30T02:28:50.091Z,97.00
2022-08-30T02:29:45.181Z,96.91
2022-08-30T02:30:44.220Z,96.91
2022-08-30T02:31:44.171Z,96.70
2022-08-30T02:32:44.172Z,96.80
2022-08-30T02:33:44.178Z,96.08
2022-08-30T02:34:44.149Z,96.39
2022-08-30T02:35:44.138Z,96.49
2022-08-30T02:36:44.126Z,96.25
2022-08-30T02:37:44.144Z,96.59
2022-08-30T02:38:44.138Z,96.59
2022-08-30T02:39:44.106Z,96.66
2022-08-30T02:40:44.174Z,96.91
2022-08-30T02:41:44.089Z,96.66
2022-08-30T02:42:44.080Z,96.91
2022-08-30T02:43:44.126Z,96.66
2022-08-30T02:44:44.074Z,96.86
2022-08-30T02:45:44.129Z,96.75
2022-08-30T02:46:44.053Z,96.66
2022-08-30T02:47:46.981Z,96.86
2022-08-30T02:48:45.074Z,97.00
2022-08-30T02:49:44.030Z,96.91
2022-08-30T02:50:44.026Z,96.96
2022-08-30T02:51:44.017Z,97.00
2022-08-30T02:52:48.108Z,97.00
2022-08-30T02:53:44.047Z,96.91
2022-08-30T02:54:43.998Z,96.66
2022-08-30T02:55:43.989Z,97.00
2022-08-30T02:56:44.006Z,97.06
2022-08-30T02:57:44.004Z,96.86
2022-08-30T02:58:44.013Z,97.06
2022-08-30T02:59:43.963Z,96.86
2022-08-30T03:00:44.029Z,96.80
2022-08-30T03:01:44.001Z,96.86
2022-08-30T03:02:43.931Z,96.70
2022-08-30T03:03:43.986Z,96.70
2022-08-30T03:04:43.912Z,96.75
2022-08-30T03:05:43.908Z,97.21
2022-08-30T03:06:43.906Z,96.66
2022-08-30T03:07:43.894Z,96.91
2022-08-30T03:08:43.912Z,97.11
2022-08-30T03:09:43.883Z,97.11
2022-08-30T03:10:43.867Z,97.11
2022-08-30T03:11:43.867Z,96.91
2022-08-30T03:12:43.864Z,96.86
2022-08-30T03:13:43.881Z,96.86
2022-08-30T03:14:43.843Z,96.66
2022-08-30T03:15:43.842Z,95.94
2022-08-30T03:16:43.890Z,95.73
2022-08-30T03:17:43.820Z,95.22
2022-08-30T03:18:43.852Z,95.32
2022-08-30T03:19:43.813Z,95.53
2022-08-30T03:20:44.002Z,95.22
2022-08-30T03:21:43.795Z,95.73
2022-08-30T03:22:43.790Z,95.02
2022-08-30T03:23:43.801Z,94.92
2022-08-30T03:24:43.775Z,94.55
2022-08-30T03:25:43.763Z,94.45
2022-08-30T03:26:46.442Z,94.96
2022-08-30T03:27:44.748Z,95.06
2022-08-30T03:28:43.772Z,95.17
2022-08-30T03:29:43.736Z,94.55
2022-08-30T03:30:43.734Z,95.26
2022-08-30T03:31:53.122Z,95.37
2022-08-30T03:32:44.718Z,95.47
2022-08-30T03:33:43.730Z,94.96
2022-08-30T03:34:43.699Z,95.47
2022-08-30T03:35:43.690Z,95.88
2022-08-30T03:36:43.687Z,95.78
2022-08-30T03:37:43.679Z,96.23
2022-08-30T03:38:43.698Z,96.13
2022-08-30T03:39:43.661Z,96.33
2022-08-30T03:40:43.714Z,96.84
2022-08-30T03:41:43.651Z,96.74
2022-08-30T03:42:43.638Z,97.05
2022-08-30T03:43:43.629Z,97.05
2022-08-30T03:44:43.651Z,97.15
2022-08-30T03:45:43.689Z,97.25
2022-08-30T03:46:43.606Z,96.95
2022-08-30T03:47:43.596Z,97.15
2022-08-30T03:48:43.600Z,96.95
2022-08-30T03:49:43.612Z,96.54
2022-08-30T03:50:43.581Z,96.84
2022-08-30T03:51:43.573Z,96.64
2022-08-30T03:52:43.569Z,96.13
2022-08-30T03:53:43.558Z,96.74
2022-08-30T03:54:43.588Z,96.64
2022-08-30T03:55:43.546Z,96.33
2022-08-30T03:56:43.535Z,96.23
2022-08-30T03:57:43.862Z,95.87
2022-08-30T03:58:43.522Z,96.33
2022-08-30T03:59:43.540Z,96.54
2022-08-30T04:00:43.567Z,96.84
2022-08-30T04:01:43.656Z,96.74
2022-08-30T04:02:43.539Z,97.05
2022-08-30T04:03:43.482Z,97.09
2022-08-30T04:04:43.500Z,97.50
2022-08-30T04:05:43.476Z,97.71
2022-08-30T04:06:43.456Z,97.91
2022-08-30T04:07:43.458Z,97.86
2022-08-30T04:08:43.460Z,98.16
2022-08-30T04:09:43.462Z,98.68
2022-08-30T04:10:43.433Z,98.27
2022-08-30T04:11:43.423Z,98.42
2022-08-30T04:12:48.919Z,98.72
2022-08-30T04:13:45.406Z,98.58
2022-08-30T04:14:43.433Z,98.68
2022-08-30T04:15:43.388Z,98.88
2022-08-30T04:16:43.462Z,99.15
2022-08-30T04:17:44.386Z,98.74
2022-08-30T04:18:43.372Z,98.63
2022-08-30T04:19:43.382Z,98.43
2022-08-30T04:20:43.364Z,98.43
2022-08-30T04:21:43.454Z,98.63
2022-08-30T04:22:43.336Z,98.63
2022-08-30T04:23:43.338Z,98.63
2022-08-30T04:24:43.349Z,98.33
2022-08-30T04:25:43.321Z,98.43
2022-08-30T04:26:43.310Z,98.38
2022-08-30T04:27:43.302Z,98.33
2022-08-30T04:28:43.291Z,98.53
2022-08-30T04:29:43.303Z,98.38
2022-08-30T04:30:43.267Z,98.28
2022-08-30T04:31:43.324Z,98.28
2022-08-30T04:32:43.242Z,98.33
2022-08-30T04:33:44.246Z,98.69
2022-08-30T04:34:43.261Z,98.69
2022-08-30T04:35:43.228Z,98.22
2022-08-30T04:36:48.233Z,98.22
2022-08-30T04:37:44.205Z,98.28
2022-08-30T04:38:43.228Z,97.87
2022-08-30T04:39:43.189Z,98.38
2022-08-30T04:40:43.238Z,98.28
2022-08-30T04:41:43.187Z,98.18
2022-08-30T04:42:43.168Z,98.18
2022-08-30T04:43:43.191Z,98.18
2022-08-30T04:44:43.151Z,98.28
2022-08-30T04:45:43.225Z,98.38
2022-08-30T04:46:44.734Z,98.33
2022-08-30T04:47:43.128Z,97.62
2022-08-30T04:48:43.152Z,97.72
2022-08-30T04:49:43.115Z,97.78
2022-08-30T04:50:43.116Z,97.27
2022-08-30T04:51:43.104Z,97.06
2022-08-30T04:52:43.097Z,96.96
2022-08-30T04:53:43.083Z,96.75
2022-08-30T04:54:43.103Z,95.84
2022-08-30T04:55:43.075Z,95.53
2022-08-30T04:56:43.065Z,95.26
2022-08-30T04:57:43.051Z,95.47
2022-08-30T04:58:43.043Z,95.47
2022-08-30T04:59:43.063Z,95.26
2022-08-30T05:00:43.062Z,95.06
2022-08-30T05:01:45.203Z,95.32
2022-08-30T05:02:43.076Z,95.53
2022-08-30T05:03:43.004Z,95.78
2022-08-30T05:04:43.023Z,96.08
2022-08-30T05:05:42.987Z,96.45
2022-08-30T05:06:42.984Z,96.86
2022-08-30T05:07:42.976Z,96.45
2022-08-30T05:08:46.609Z,95.64
2022-08-30T05:09:42.974Z,95.39
2022-08-30T05:10:43.951Z,93.82
2022-08-30T05:11:42.947Z,93.73
2022-08-30T05:12:42.934Z,90.14
2022-08-30T05:13:42.931Z,89.63
2022-08-30T05:14:42.955Z,88.02
2022-08-30T05:15:42.909Z,86.45
2022-08-30T05:16:42.941Z,85.29
2022-08-30T05:17:42.897Z,84.30
2022-08-30T05:18:42.888Z,82.67
2022-08-30T05:19:42.909Z,81.15
2022-08-30T05:20:42.871Z,81.15
2022-08-30T05:21:42.862Z,82.14
2022-08-30T05:22:42.859Z,82.65
2022-08-30T05:23:42.847Z,82.75
2022-08-30T05:24:42.880Z,82.75
2022-08-30T05:25:42.833Z,84.05
2022-08-30T05:26:42.882Z,85.66
2022-08-30T05:27:42.820Z,86.92
2022-08-30T05:28:42.812Z,87.32
2022-08-30T05:29:42.833Z,87.77
2022-08-30T05:30:42.792Z,89.69
2022-08-30T05:31:42.826Z,90.20
2022-08-30T05:32:42.794Z,90.55
2022-08-30T05:33:42.784Z,90.45
2022-08-30T05:34:42.794Z,90.06
2022-08-30T05:35:42.753Z,89.61
2022-08-30T05:36:42.744Z,88.81
2022-08-30T05:37:42.742Z,87.75
2022-08-30T05:38:42.732Z,87.00
2022-08-30T05:39:45.054Z,85.84
2022-08-30T05:40:43.796Z,85.80
2022-08-30T05:41:42.712Z,85.64
2022-08-30T05:42:42.702Z,86.80
2022-08-30T05:43:42.693Z,86.96
2022-08-30T05:44:44.342Z,86.51
2022-08-30T05:45:42.689Z,85.90
2022-08-30T05:46:42.675Z,86.04
2022-08-30T05:47:42.661Z,86.15
2022-08-30T05:48:42.658Z,85.94
2022-08-30T05:49:42.670Z,87.14
2022-08-30T05:50:42.644Z,88.40
2022-08-30T05:51:43.285Z,88.81
2022-08-30T05:52:42.629Z,89.47
2022-08-30T05:53:42.616Z,89.63
2022-08-30T05:54:42.641Z,89.87
2022-08-30T05:55:42.604Z,90.38
2022-08-30T05:56:42.625Z,91.65
2022-08-30T05:57:42.607Z,91.85
2022-08-30T05:58:42.582Z,92.87
2022-08-30T05:59:42.606Z,93.84
2022-08-30T06:00:42.571Z,93.48
2022-08-30T06:01:42.687Z,94.24
2022-08-30T06:02:42.600Z,94.65
2022-08-30T06:03:42.548Z,95.10
2022-08-30T06:04:42.561Z,95.51
2022-08-30T06:05:42.571Z,95.57
2022-08-30T06:06:42.520Z,95.06
2022-08-30T06:07:42.511Z,95.01
2022-08-30T06:08:42.507Z,94.87
2022-08-30T06:09:42.526Z,94.09
2022-08-30T06:10:42.493Z,94.15
2022-08-30T06:11:42.482Z,93.95
2022-08-30T06:12:42.469Z,93.70
2022-08-30T06:13:42.472Z,93.29
2022-08-30T06:14:42.492Z,93.64
2022-08-30T06:15:42.477Z,93.50
2022-08-30T06:16:42.444Z,93.50
2022-08-30T06:17:42.440Z,93.50
2022-08-30T06:18:42.430Z,93.29
2022-08-30T06:19:42.418Z,93.29
2022-08-30T06:20:42.441Z,93.29
2022-08-30T06:21:42.402Z,93.70
2022-08-30T06:22:42.396Z,93.15
2022-08-30T06:23:42.391Z,93.70
2022-08-30T06:24:57.089Z,94.11
2022-08-30T06:25:44.399Z,94.21
2022-08-30T06:26:42.364Z,94.63
2022-08-30T06:27:42.364Z,93.51
2022-08-30T06:28:42.364Z,92.65
2022-08-30T06:29:42.343Z,92.96
2022-08-30T06:30:42.362Z,93.06
2022-08-30T06:31:42.359Z,92.96
2022-08-30T06:32:42.323Z,93.31
2022-08-30T06:33:42.310Z,93.41
2022-08-30T06:34:42.327Z,93.77
2022-08-30T06:35:58.260Z,93.32
2022-08-30T06:36:44.294Z,92.06
2022-08-30T06:37:42.284Z,91.06
2022-08-30T06:38:42.280Z,89.98
2022-08-30T06:39:42.272Z,91.55
2022-08-30T06:40:42.343Z,91.61
2022-08-30T06:41:42.262Z,89.88
2022-08-30T06:42:42.246Z,90.49
2022-08-30T06:43:46.762Z,90.29
2022-08-30T06:44:45.702Z,89.84
2022-08-30T06:45:42.251Z,90.05
2022-08-30T06:46:42.321Z,89.23
2022-08-30T06:47:42.202Z,90.45
2022-08-30T06:48:43.096Z,90.09
2022-08-30T06:49:42.182Z,90.09
2022-08-30T06:50:43.205Z,90.25
2022-08-30T06:51:42.169Z,89.13
2022-08-30T06:52:42.164Z,89.59
2022-08-30T06:53:42.192Z,89.09
2022-08-30T06:54:42.155Z,89.29
2022-08-30T06:55:42.163Z,89.19
2022-08-30T06:56:57.712Z,89.15
2022-08-30T06:57:44.125Z,87.79
2022-08-30T06:58:42.129Z,86.43
2022-08-30T06:59:42.105Z,87.24
2022-08-30T07:00:42.143Z,86.69
2022-08-30T07:01:42.162Z,85.88
2022-08-30T07:02:42.141Z,85.24
2022-08-30T07:03:42.079Z,84.53
2022-08-30T07:04:42.078Z,84.19
2022-08-30T07:05:42.089Z,83.88
2022-08-30T07:06:42.057Z,82.93
2022-08-30T07:07:42.051Z,83.92
2022-08-30T07:08:42.036Z,85.72
2022-08-30T07:09:42.031Z,86.59
2022-08-30T07:10:42.046Z,86.76
2022-08-30T07:11:42.021Z,84.89
2022-08-30T07:12:42.004Z,83.74
2022-08-30T07:13:42.002Z,82.59
2022-08-30T07:14:41.996Z,83.03
2022-08-30T07:15:42.072Z,84.11
2022-08-30T07:16:41.976Z,83.46
2022-08-30T07:17:41.966Z,82.91
2022-08-30T07:18:41.960Z,82.98
2022-08-30T07:19:41.946Z,81.89
2022-08-30T07:20:41.990Z,80.68
2022-08-30T07:21:41.995Z,79.93
2022-08-30T07:22:41.925Z,78.72
2022-08-30T07:23:41.925Z,78.72
2022-08-30T07:24:41.913Z,78.92
2022-08-30T07:25:41.939Z,79.13
2022-08-30T07:26:41.893Z,79.13
2022-08-30T07:27:41.888Z,79.09
2022-08-30T07:28:41.882Z,78.59
2022-08-30T07:29:41.855Z,78.55
2022-08-30T07:30:42.893Z,77.50
2022-08-30T07:31:41.860Z,77.47
2022-08-30T07:32:41.848Z,76.03
2022-08-30T07:33:41.850Z,76.32
2022-08-30T07:34:41.831Z,76.87
2022-08-30T07:35:41.896Z,77.94
2022-08-30T07:36:41.871Z,75.66
2022-08-30T07:37:41.810Z,75.49
2022-08-30T07:38:41.800Z,76.47
2022-08-30T07:39:45.843Z,78.69
2022-08-30T07:40:43.931Z,76.43
2022-08-30T07:41:41.780Z,75.83
2022-08-30T07:42:41.779Z,77.08
2022-08-30T07:43:41.764Z,77.59
2022-08-30T07:44:41.756Z,78.80
2022-08-30T07:45:41.765Z,78.16
2022-08-30T07:46:41.820Z,78.12
2022-08-30T07:47:41.744Z,78.63
2022-08-30T07:48:41.733Z,77.62
2022-08-30T07:49:41.756Z,76.40
2022-08-30T07:50:41.746Z,77.42
2022-08-30T07:51:41.714Z,76.27
2022-08-30T07:52:41.716Z,77.55
2022-08-30T07:53:41.692Z,77.82
2022-08-30T07:54:41.685Z,77.01
2022-08-30T07:55:41.680Z,77.31
2022-08-30T07:56:41.696Z,77.21
2022-08-30T07:57:41.670Z,77.58
2022-08-30T07:58:41.660Z,75.29
2022-08-30T07:59:41.663Z,74.65
2022-08-30T08:00:41.642Z,74.01
2022-08-30T08:01:41.727Z,73.88
2022-08-30T08:02:41.669Z,72.57
2022-08-30T08:03:41.619Z,72.44
2022-08-30T08:04:41.648Z,70.89
2022-08-30T08:05:41.612Z,70.66
2022-08-30T08:06:41.621Z,70.26
2022-08-30T08:07:41.586Z,70.06
2022-08-30T08:08:41.594Z,70.16
2022-08-30T08:09:41.587Z,70.59
2022-08-30T08:10:41.564Z,70.43
2022-08-30T08:11:41.573Z,70.12
2022-08-30T08:12:41.541Z,69.76
2022-08-30T08:13:48.972Z,70.66
2022-08-30T08:14:42.540Z,70.96
2022-08-30T08:15:41.553Z,69.92
2022-08-30T08:16:41.543Z,71.26
2022-08-30T08:17:41.503Z,70.50
2022-08-30T08:18:41.507Z,71.03
2022-08-30T08:19:41.499Z,71.73
2022-08-30T08:20:41.483Z,69.69
2022-08-30T08:21:41.503Z,69.06
2022-08-30T08:22:41.474Z,70.19
2022-08-30T08:23:41.463Z,71.06
2022-08-30T08:24:41.448Z,72.17
2022-08-30T08:25:41.434Z,72.37
2022-08-30T08:26:45.262Z,70.50
2022-08-30T08:27:41.438Z,69.82
2022-08-30T08:28:41.441Z,68.96
2022-08-30T08:29:41.431Z,67.05
2022-08-30T08:30:45.107Z,66.48
2022-08-30T08:31:43.454Z,67.32
2022-08-30T08:32:41.750Z,68.22
2022-08-30T08:33:41.387Z,68.05
2022-08-30T08:34:41.390Z,68.99
2022-08-30T08:35:41.398Z,68.76
2022-08-30T08:36:41.403Z,69.12
2022-08-30T08:37:41.358Z,68.55
2022-08-30T08:38:41.335Z,65.01
2022-08-30T08:39:41.343Z,65.31
2022-08-30T08:40:41.369Z,65.52
2022-08-30T08:41:41.356Z,65.69
2022-08-30T08:42:41.345Z,64.25
2022-08-30T08:43:41.308Z,63.61
2022-08-30T08:44:41.339Z,65.82
2022-08-30T08:45:41.288Z,63.61
2022-08-30T08:46:41.388Z,64.59
2022-08-30T08:47:41.277Z,64.18
2022-08-30T08:48:59.103Z,65.16
2022-08-30T08:49:43.263Z,63.42
2022-08-30T08:50:41.305Z,63.42
2022-08-30T08:51:41.272Z,63.39
2022-08-30T08:52:41.237Z,64.72
2022-08-30T08:53:48.372Z,63.92
2022-08-30T08:54:43.241Z,64.62
2022-08-30T08:55:41.253Z,63.01
2022-08-30T08:56:41.285Z,63.18
2022-08-30T08:57:41.212Z,63.06
2022-08-30T08:58:41.250Z,62.15
2022-08-30T08:59:41.193Z,62.98
2022-08-30T09:00:41.219Z,62.78
2022-08-30T09:01:41.265Z,62.98
2022-08-30T09:02:41.163Z,62.88
2022-08-30T09:03:41.164Z,63.28
2022-08-30T09:04:41.168Z,63.35
2022-08-30T09:05:41.141Z,62.95
2022-08-30T09:06:45.377Z,62.98
2022-08-30T09:07:41.123Z,62.98
2022-08-30T09:08:41.161Z,63.08
2022-08-30T09:09:41.144Z,62.85
2022-08-30T09:10:50.500Z,62.35
2022-08-30T09:11:59.134Z,61.85
2022-08-30T09:12:42.101Z,63.18
2022-08-30T09:13:41.079Z,62.78
2022-08-30T09:14:45.969Z,63.02
2022-08-30T09:15:42.093Z,62.25
2022-08-30T09:16:41.112Z,62.68
2022-08-30T09:17:41.061Z,63.18
2022-08-30T09:18:41.061Z,62.75
2022-08-30T09:19:41.035Z,62.92
2022-08-30T09:20:41.023Z,63.02
2022-08-30T09:21:41.433Z,61.02
2022-08-30T09:22:40.993Z,61.85
2022-08-30T09:23:41.010Z,63.45
2022-08-30T09:24:40.984Z,61.95
2022-08-30T09:25:41.903Z,62.05
2022-08-30T09:26:42.002Z,63.12
2022-08-30T09:27:40.957Z,61.12
2022-08-30T09:28:40.944Z,61.75
2022-08-30T09:29:40.961Z,62.05
2022-08-30T09:30:41.046Z,61.95
2022-08-30T09:31:40.957Z,61.82
2022-08-30T09:32:40.910Z,60.52
2022-08-30T09:33:40.921Z,60.82
2022-08-30T09:34:40.903Z,60.62
2022-08-30T09:35:40.887Z,60.82
2022-08-30T09:36:40.929Z,60.19
2022-08-30T09:37:40.885Z,60.39
2022-08-30T09:38:40.863Z,60.03
2022-08-30T09:39:40.858Z,58.73
2022-08-30T09:40:40.896Z,59.91
2022-08-30T09:41:41.868Z,59.01
2022-08-30T09:42:40.836Z,58.44
2022-08-30T09:43:40.837Z,58.44
2022-08-30T09:44:40.822Z,58.44
2022-08-30T09:45:40.812Z,58.84
2022-08-30T09:46:40.896Z,59.27
2022-08-30T09:47:40.819Z,58.14
2022-08-30T09:48:40.798Z,58.11
2022-08-30T09:49:40.785Z,57.51
2022-08-30T09:50:42.281Z,57.54
2022-08-30T09:51:40.825Z,58.51
2022-08-30T09:52:40.948Z,58.08
2022-08-30T09:53:50.949Z,57.65
2022-08-30T09:54:42.744Z,56.83
2022-08-30T09:55:40.748Z,55.43
2022-08-30T09:56:40.726Z,55.33
2022-08-30T09:57:40.756Z,55.21
2022-08-30T09:58:40.718Z,56.36
2022-08-30T09:59:40.716Z,56.93
2022-08-30T10:00:40.694Z,54.44
2022-08-30T10:01:40.746Z,55.31
2022-08-30T10:02:40.706Z,52.49
2022-08-30T10:03:41.204Z,51.29
2022-08-30T10:04:40.671Z,52.42
2022-08-30T10:05:40.673Z,52.27
2022-08-30T10:06:42.090Z,52.89
2022-08-30T10:07:40.645Z,51.17
2022-08-30T10:08:40.682Z,50.07
2022-08-30T10:09:40.659Z,51.54
2022-08-30T10:10:45.254Z,51.59
2022-08-30T10:11:42.649Z,50.00
2022-08-30T10:12:40.620Z,50.50
2022-08-30T10:13:40.718Z,51.79
2022-08-30T10:14:40.591Z,50.40
2022-08-30T10:15:40.593Z,50.48
2022-08-30T10:16:40.620Z,50.38
2022-08-30T10:17:40.571Z,50.75
2022-08-30T10:18:40.558Z,49.78
2022-08-30T10:19:40.549Z,51.65
2022-08-30T10:20:40.559Z,50.27
2022-08-30T10:21:40.577Z,50.18
2022-08-30T10:22:40.530Z,50.62
2022-08-30T10:23:40.520Z,51.40
2022-08-30T10:24:40.522Z,51.15
2022-08-30T10:25:40.566Z,50.18
2022-08-30T10:26:40.536Z,50.90
2022-08-30T10:27:40.480Z,50.40
2022-08-30T10:28:41.482Z,49.80
2022-08-30T10:29:42.506Z,52.00
2022-08-30T10:30:41.464Z,51.00
2022-08-30T10:31:40.457Z,51.50
2022-08-30T10:32:40.481Z,51.67
2022-08-30T10:33:40.458Z,49.98
2022-08-30T10:34:40.446Z,52.59
2022-08-30T10:35:40.443Z,49.90
2022-08-30T10:36:40.449Z,50.62
2022-08-30T10:37:40.423Z,50.80
2022-08-30T10:38:40.409Z,50.18
2022-08-30T10:39:40.400Z,49.08
2022-08-30T10:40:40.457Z,49.04
2022-08-30T10:41:40.410Z,49.04
2022-08-30T10:42:40.382Z,48.54
2022-08-30T10:43:40.408Z,49.46
2022-08-30T10:44:41.313Z,49.38
2022-08-30T10:45:40.362Z,49.58
2022-08-30T10:46:40.377Z,50.25
2022-08-30T10:47:40.340Z,49.04
2022-08-30T10:48:40.362Z,48.24
2022-08-30T10:49:40.622Z,49.68
2022-08-30T10:50:41.444Z,50.35
2022-08-30T10:51:40.345Z,47.74
2022-08-30T10:52:40.304Z,48.14
2022-08-30T10:53:40.299Z,48.86
2022-08-30T10:54:40.289Z,49.88
2022-08-30T10:55:40.301Z,49.95
2022-08-30T10:56:40.310Z,48.74
2022-08-30T10:57:41.877Z,49.93
2022-08-30T10:58:40.265Z,48.94
2022-08-30T10:59:40.251Z,48.16
2022-08-30T11:00:40.251Z,48.80
2022-08-30T11:01:46.647Z,49.88
2022-08-30T11:02:41.293Z,49.36
2022-08-30T11:03:40.249Z,49.13
2022-08-30T11:04:40.244Z,47.92
2022-08-30T11:05:42.080Z,47.72
2022-08-30T11:06:40.195Z,46.57
2022-08-30T11:07:40.192Z,48.49
2022-08-30T11:08:40.187Z,49.28
2022-08-30T11:09:40.205Z,49.85
2022-08-30T11:10:40.161Z,50.05
2022-08-30T11:11:40.736Z,49.16
2022-08-30T11:12:40.158Z,49.46
2022-08-30T11:13:40.141Z,48.26
2022-08-30T11:14:40.170Z,49.63
2022-08-30T11:15:40.151Z,48.22
2022-08-30T11:16:40.131Z,47.64
2022-08-30T11:17:40.120Z,49.43
2022-08-30T11:18:40.105Z,48.02
2022-08-30T11:19:40.852Z,47.80
2022-08-30T11:20:40.094Z,47.89
2022-08-30T11:21:40.087Z,47.92
2022-08-30T11:22:40.093Z,48.29
2022-08-30T11:23:40.086Z,48.02
2022-08-30T11:24:40.107Z,48.02
2022-08-30T11:25:40.069Z,47.92
2022-08-30T11:26:40.054Z,48.02
2022-08-30T11:27:41.045Z,48.02
2022-08-30T11:28:40.036Z,48.64
2022-08-30T11:29:40.058Z,49.33
2022-08-30T11:30:40.037Z,48.64
2022-08-30T11:31:40.017Z,48.44
2022-08-30T11:32:40.014Z,49.33
2022-08-30T11:33:40.007Z,48.32
2022-08-30T11:34:40.025Z,48.41
2022-08-30T11:35:40.341Z,49.53
2022-08-30T11:36:46.326Z,48.29
2022-08-30T11:37:40.973Z,47.53
2022-08-30T11:38:39.960Z,47.23
2022-08-30T11:39:39.981Z,47.25
2022-08-30T11:40:39.958Z,49.19
2022-08-30T11:41:42.621Z,48.66
2022-08-30T11:43:39.951Z,48.57
2022-08-30T11:44:39.938Z,48.02
2022-08-30T11:45:39.928Z,46.16
2022-08-30T11:46:39.910Z,47.33
2022-08-30T11:47:39.897Z,46.56
2022-08-30T11:48:39.885Z,46.86
2022-08-30T11:49:40.906Z,47.38
2022-08-30T11:50:39.876Z,47.82
2022-08-30T11:51:39.867Z,49.49
2022-08-30T11:52:39.860Z,48.27
2022-08-30T11:53:39.846Z,47.70
2022-08-30T11:54:39.874Z,47.92
2022-08-30T11:55:39.828Z,48.02
2022-08-30T11:56:39.828Z,47.42
2022-08-30T11:57:39.834Z,47.50
2022-08-30T11:58:39.816Z,48.27
2022-08-30T11:59:39.796Z,46.90
2022-08-30T12:00:40.706Z,47.00
2022-08-30T12:01:42.084Z,48.37
2022-08-30T12:02:41.955Z,47.13
2022-08-30T12:03:39.836Z,47.53
2022-08-30T12:04:39.773Z,46.09
2022-08-30T12:05:39.821Z,45.57
2022-08-30T12:06:39.818Z,45.57
2022-08-30T12:07:39.740Z,46.00
2022-08-30T12:08:39.733Z,45.42
2022-08-30T12:09:40.738Z,45.92
2022-08-30T12:10:39.797Z,46.49
2022-08-30T12:11:39.714Z,44.89
2022-08-30T12:12:39.706Z,44.37
2022-08-30T12:13:39.703Z,44.98
2022-08-30T12:14:41.151Z,44.96
2022-08-30T12:15:39.711Z,44.56
2022-08-30T12:16:39.698Z,44.76
2022-08-30T12:17:39.668Z,44.90
2022-08-30T12:18:40.723Z,46.64
2022-08-30T12:19:41.309Z,46.64
2022-08-30T12:20:39.674Z,45.96
2022-08-30T12:21:44.779Z,47.03
2022-08-30T12:22:40.628Z,47.11
2022-08-30T12:23:44.543Z,46.04
2022-08-30T12:24:40.660Z,46.44
2022-08-30T12:25:39.659Z,46.83
2022-08-30T12:26:39.598Z,46.04
2022-08-30T12:27:39.595Z,46.76
2022-08-30T12:28:42.091Z,47.75
2022-08-30T12:29:39.588Z,47.47
2022-08-30T12:30:39.616Z,47.00
2022-08-30T12:31:39.586Z,46.98
2022-08-30T12:32:39.584Z,47.28
2022-08-30T12:33:41.342Z,46.48
2022-08-30T12:34:39.537Z,47.08
2022-08-30T12:35:39.576Z,47.17
2022-08-30T12:36:39.524Z,47.67
2022-08-30T12:37:42.149Z,46.68
2022-08-30T12:38:39.513Z,46.90
2022-08-30T12:39:39.497Z,47.10
2022-08-30T12:40:39.571Z,47.17
2022-08-30T12:41:43.583Z,47.38
2022-08-30T12:42:39.474Z,46.88
2022-08-30T12:43:41.481Z,47.47
2022-08-30T12:44:39.461Z,46.86
2022-08-30T12:45:39.577Z,46.64
2022-08-30T12:46:39.441Z,46.04
2022-08-30T12:47:39.440Z,46.12
2022-08-30T12:48:39.462Z,46.02
2022-08-30T12:49:39.418Z,45.79
2022-08-30T12:50:39.462Z,44.98
2022-08-30T12:51:39.415Z,44.76
2022-08-30T12:52:39.401Z,45.53
2022-08-30T12:53:39.398Z,44.23